Buffalo, ND (58011)

5:22 PM CDT on July 26, 2016 (GMT -0500)
Home of the Absaraka Crows | | Change Station

Elev 1066 ft 46.98 °N, 97.39 °W | Updated 5 seconds ago

Overcast
Overcast
86.0 °F
Feels Like 95 °F
N
0.7
Wind Variable Wind from NE
Gusts 1.6 mph

Today
High -- | Low -- °F
--% Chance of Precip.
Yesterday
High -- | Low -- °F
Precip. -- in
Pressure 29.99 in
Visibility 5.0 miles
Clouds Few 4500 ft
Few 5500 ft
Scattered Clouds 7500 ft
Heat Index 95 °F
Dew Point 75 °F
Humidity 70%
Rainfall 0.00 in
Snow Depth Not available.
6:03 AM 9:09 PM
Waning Gibbous, 50% visible
METAR KBAC 262215Z AUTO 15003KT 5SM -RA FEW045 FEW055 SCT075 21/21 A2999 RMK AO2
Pressure 29.99 in
Visibility 5.0 miles
Clouds Few 4500 ft
Few 5500 ft
Scattered Clouds 7500 ft
Heat Index 95 °F
Dew Point 75 °F
Humidity 70%
Rainfall 0.00 in
Snow Depth Not available.
6:03 AM 9:09 PM
Waning Gibbous, 50% visible
METAR KBAC 262215Z AUTO 15003KT 5SM -RA FEW045 FEW055 SCT075 21/21 A2999 RMK AO2

10-Day Weather Forecast

Almanac

Astronomy

Jul. 26, 2016 Rise Set
Actual Time
Civil Twilight
Nautical Twilight
Astronomical Twilight
Moon
Length of Visible Light
Length of Day
Tomorrow will be .
, % of the Moon is Illuminated

Today's Extremes

State Highs State Lows

Community

WunderPhotos

Upload Photos

1,927,717 photos uploaded!

WunderBlog® & News

Nearby

Air Quality

  Air Quality AQ Index Pollutant
Not available.

Snow Depth

Station Depth Elevation

Earthquake Activity

City Distance Mag. Time & Date
Minimum magnitude displayed is 2.5.

Coastal Water Temperatures

Place Temperature

Stations

Nearby Weather Stations

Station Location Temp. Windchill Dew Point Humidity Wind Precip. Elev Updated Type
                   

Watches & Warnings

There are currently no watches in effect.